sensor_id;sensor_type;location;lat;lon;timestamp;temperature;humidity
73643;DHT22;61938;48.652;9.292;2024-01-25T00:02:05;8.10;99.90
73643;DHT22;61938;48.652;9.292;2024-01-25T00:04:30;8.10;99.90
73643;DHT22;61938;48.652;9.292;2024-01-25T00:06:56;8.10;99.90
73643;DHT22;61938;48.652;9.292;2024-01-25T00:09:21;8.10;99.90
73643;DHT22;61938;48.652;9.292;2024-01-25T00:11:46;8.10;99.90
73643;DHT22;61938;48.652;9.292;2024-01-25T00:14:12;8.10;99.90
73643;DHT22;61938;48.652;9.292;2024-01-25T00:16:41;8.10;99.90
73643;DHT22;61938;48.652;9.292;2024-01-25T00:19:07;8.10;99.90
73643;DHT22;61938;48.652;9.292;2024-01-25T00:21:33;8.20;99.90
73643;DHT22;61938;48.652;9.292;2024-01-25T00:24:00;8.20;99.90
73643;DHT22;61938;48.652;9.292;2024-01-25T00:26:26;8.10;99.90
73643;DHT22;61938;48.652;9.292;2024-01-25T00:28:51;7.60;99.90
73643;DHT22;61938;48.652;9.292;2024-01-25T00:31:17;8.10;99.90
73643;DHT22;61938;48.652;9.292;2024-01-25T00:33:42;8.20;99.90
73643;DHT22;61938;48.652;9.292;2024-01-25T00:36:08;8.20;99.90
73643;DHT22;61938;48.652;9.292;2024-01-25T00:38:34;8.20;99.90
73643;DHT22;61938;48.652;9.292;2024-01-25T00:41:00;8.10;99.90
73643;DHT22;61938;48.652;9.292;2024-01-25T00:43:26;8.20;99.90
73643;DHT22;61938;48.652;9.292;2024-01-25T00:45:52;8.20;99.90
73643;DHT22;61938;48.652;9.292;2024-01-25T00:48:18;8.20;99.90
73643;DHT22;61938;48.652;9.292;2024-01-25T00:50:43;8.20;99.90
73643;DHT22;61938;48.652;9.292;2024-01-25T00:53:09;8.20;99.90
73643;DHT22;61938;48.652;9.292;2024-01-25T00:55:35;8.20;99.90
73643;DHT22;61938;48.652;9.292;2024-01-25T00:58:01;8.20;99.90
73643;DHT22;61938;48.652;9.292;2024-01-25T01:00:27;8.20;99.90
73643;DHT22;61938;48.652;9.292;2024-01-25T01:02:53;8.20;99.90
73643;DHT22;61938;48.652;9.292;2024-01-25T01:05:19;8.20;99.90
73643;DHT22;61938;48.652;9.292;2024-01-25T01:07:45;8.20;99.90
73643;DHT22;61938;48.652;9.292;2024-01-25T01:10:11;8.20;99.90
73643;DHT22;61938;48.652;9.292;2024-01-25T01:12:37;8.20;99.90
73643;DHT22;61938;48.652;9.292;2024-01-25T01:15:03;8.20;99.90
73643;DHT22;61938;48.652;9.292;2024-01-25T01:17:29;8.20;99.90
73643;DHT22;61938;48.652;9.292;2024-01-25T01:19:54;8.20;99.90
73643;DHT22;61938;48.652;9.292;2024-01-25T01:22:20;8.20;99.90
73643;DHT22;61938;48.652;9.292;2024-01-25T01:24:45;8.20;99.90
73643;DHT22;61938;48.652;9.292;2024-01-25T01:27:11;8.20;99.90
73643;DHT22;61938;48.652;9.292;2024-01-25T01:29:36;8.20;99.90
73643;DHT22;61938;48.652;9.292;2024-01-25T01:32:02;8.20;99.90
73643;DHT22;61938;48.652;9.292;2024-01-25T01:34:28;8.20;99.90
73643;DHT22;61938;48.652;9.292;2024-01-25T01:36:53;8.20;99.90
73643;DHT22;61938;48.652;9.292;2024-01-25T01:39:19;8.20;99.90
73643;DHT22;61938;48.652;9.292;2024-01-25T01:41:48;8.20;99.90
73643;DHT22;61938;48.652;9.292;2024-01-25T01:44:14;8.20;99.90
73643;DHT22;61938;48.652;9.292;2024-01-25T01:46:40;8.20;99.90
73643;DHT22;61938;48.652;9.292;2024-01-25T01:49:07;8.20;99.90
73643;DHT22;61938;48.652;9.292;2024-01-25T01:51:34;8.20;99.90
73643;DHT22;61938;48.652;9.292;2024-01-25T01:54:02;8.10;99.90
73643;DHT22;61938;48.652;9.292;2024-01-25T01:56:29;8.20;99.90
73643;DHT22;61938;48.652;9.292;2024-01-25T01:58:59;8.20;99.90
73643;DHT22;61938;48.652;9.292;2024-01-25T02:01:26;8.10;99.90
73643;DHT22;61938;48.652;9.292;2024-01-25T02:03:52;8.10;99.90
73643;DHT22;61938;48.652;9.292;2024-01-25T02:06:18;8.10;99.90
73643;DHT22;61938;48.652;9.292;2024-01-25T02:08:48;8.10;99.90
73643;DHT22;61938;48.652;9.292;2024-01-25T02:11:14;8.10;99.90
73643;DHT22;61938;48.652;9.292;2024-01-25T02:13:44;8.10;99.90
73643;DHT22;61938;48.652;9.292;2024-01-25T02:16:10;9.10;99.90
73643;DHT22;61938;48.652;9.292;2024-01-25T02:18:36;8.40;99.90
73643;DHT22;61938;48.652;9.292;2024-01-25T02:21:03;9.80;99.90
73643;DHT22;61938;48.652;9.292;2024-01-25T02:23:29;8.10;99.90
73643;DHT22;61938;48.652;9.292;2024-01-25T02:25:54;7.80;99.90
73643;DHT22;61938;48.652;9.292;2024-01-25T02:28:20;8.00;99.90
73643;DHT22;61938;48.652;9.292;2024-01-25T02:30:45;8.00;99.90
73643;DHT22;61938;48.652;9.292;2024-01-25T02:33:11;7.40;99.90
73643;DHT22;61938;48.652;9.292;2024-01-25T02:35:37;8.00;99.90
73643;DHT22;61938;48.652;9.292;2024-01-25T02:38:03;8.00;99.90
73643;DHT22;61938;48.652;9.292;2024-01-25T02:40:29;8.00;99.90
73643;DHT22;61938;48.652;9.292;2024-01-25T02:42:54;8.00;99.90
73643;DHT22;61938;48.652;9.292;2024-01-25T02:45:22;8.00;99.90
73643;DHT22;61938;48.652;9.292;2024-01-25T02:47:47;8.00;99.90
73643;DHT22;61938;48.652;9.292;2024-01-25T02:50:13;8.00;99.90
73643;DHT22;61938;48.652;9.292;2024-01-25T02:52:38;8.00;99.90
73643;DHT22;61938;48.652;9.292;2024-01-25T02:55:04;8.00;99.90
73643;DHT22;61938;48.652;9.292;2024-01-25T02:57:30;8.00;99.90
73643;DHT22;61938;48.652;9.292;2024-01-25T02:59:56;8.00;99.90
73643;DHT22;61938;48.652;9.292;2024-01-25T03:02:22;8.00;99.90
73643;DHT22;61938;48.652;9.292;2024-01-25T03:04:48;8.00;99.90
73643;DHT22;61938;48.652;9.292;2024-01-25T03:07:13;8.00;99.90
73643;DHT22;61938;48.652;9.292;2024-01-25T03:09:39;8.00;99.90
73643;DHT22;61938;48.652;9.292;2024-01-25T03:12:05;8.00;99.90
73643;DHT22;61938;48.652;9.292;2024-01-25T03:14:30;8.00;99.90
73643;DHT22;61938;48.652;9.292;2024-01-25T03:16:56;8.00;99.90
73643;DHT22;61938;48.652;9.292;2024-01-25T03:19:26;8.00;99.90
73643;DHT22;61938;48.652;9.292;2024-01-25T03:21:52;8.00;99.90
73643;DHT22;61938;48.652;9.292;2024-01-25T03:24:17;8.00;99.90
73643;DHT22;61938;48.652;9.292;2024-01-25T03:26:43;8.00;99.90
73643;DHT22;61938;48.652;9.292;2024-01-25T03:29:09;8.00;99.90
73643;DHT22;61938;48.652;9.292;2024-01-25T03:31:34;8.00;99.90
73643;DHT22;61938;48.652;9.292;2024-01-25T03:34:01;8.10;99.90
73643;DHT22;61938;48.652;9.292;2024-01-25T03:36:27;7.40;99.90
73643;DHT22;61938;48.652;9.292;2024-01-25T03:38:52;8.00;99.90
73643;DHT22;61938;48.652;9.292;2024-01-25T03:41:18;7.80;99.90
73643;DHT22;61938;48.652;9.292;2024-01-25T03:43:43;8.00;99.90
73643;DHT22;61938;48.652;9.292;2024-01-25T03:46:10;8.00;99.90
73643;DHT22;61938;48.652;9.292;2024-01-25T03:48:36;8.00;99.90
73643;DHT22;61938;48.652;9.292;2024-01-25T03:51:01;8.10;99.90
73643;DHT22;61938;48.652;9.292;2024-01-25T03:53:27;8.10;99.90
73643;DHT22;61938;48.652;9.292;2024-01-25T03:55:52;8.10;99.90
73643;DHT22;61938;48.652;9.292;2024-01-25T03:58:18;8.10;99.90
73643;DHT22;61938;48.652;9.292;2024-01-25T04:00:43;8.10;99.90
73643;DHT22;61938;48.652;9.292;2024-01-25T04:03:10;8.10;99.90
73643;DHT22;61938;48.652;9.292;2024-01-25T04:05:36;8.00;99.90
73643;DHT22;61938;48.652;9.292;2024-01-25T04:08:03;8.00;99.90
73643;DHT22;61938;48.652;9.292;2024-01-25T04:10:29;8.10;99.90
73643;DHT22;61938;48.652;9.292;2024-01-25T04:12:54;7.40;99.90
73643;DHT22;61938;48.652;9.292;2024-01-25T04:15:20;8.00;99.90
73643;DHT22;61938;48.652;9.292;2024-01-25T04:17:45;8.00;99.90
73643;DHT22;61938;48.652;9.292;2024-01-25T04:20:11;8.20;99.90
73643;DHT22;61938;48.652;9.292;2024-01-25T04:22:37;8.00;99.90
73643;DHT22;61938;48.652;9.292;2024-01-25T04:25:02;8.00;99.90
73643;DHT22;61938;48.652;9.292;2024-01-25T04:27:28;8.00;99.90
73643;DHT22;61938;48.652;9.292;2024-01-25T04:29:54;8.00;99.90
73643;DHT22;61938;48.652;9.292;2024-01-25T04:32:19;8.00;99.90
73643;DHT22;61938;48.652;9.292;2024-01-25T04:34:45;8.00;99.90
73643;DHT22;61938;48.652;9.292;2024-01-25T04:37:13;8.00;99.90
73643;DHT22;61938;48.652;9.292;2024-01-25T04:39:38;8.00;99.90
73643;DHT22;61938;48.652;9.292;2024-01-25T04:42:04;8.00;99.90
73643;DHT22;61938;48.652;9.292;2024-01-25T04:44:30;8.00;99.90
73643;DHT22;61938;48.652;9.292;2024-01-25T04:46:55;8.00;99.90
73643;DHT22;61938;48.652;9.292;2024-01-25T04:49:21;8.00;99.90
73643;DHT22;61938;48.652;9.292;2024-01-25T04:51:47;8.00;99.90
73643;DHT22;61938;48.652;9.292;2024-01-25T04:54:12;8.00;99.90
73643;DHT22;61938;48.652;9.292;2024-01-25T04:56:41;8.00;99.90
73643;DHT22;61938;48.652;9.292;2024-01-25T04:59:06;8.00;99.90
73643;DHT22;61938;48.652;9.292;2024-01-25T05:01:33;8.00;99.90
73643;DHT22;61938;48.652;9.292;2024-01-25T05:03:59;8.70;99.90
73643;DHT22;61938;48.652;9.292;2024-01-25T05:06:26;8.10;99.90
73643;DHT22;61938;48.652;9.292;2024-01-25T05:08:54;7.40;99.90
73643;DHT22;61938;48.652;9.292;2024-01-25T05:11:19;8.50;99.90
73643;DHT22;61938;48.652;9.292;2024-01-25T05:13:45;7.00;99.90
73643;DHT22;61938;48.652;9.292;2024-01-25T05:16:11;7.40;99.90
73643;DHT22;61938;48.652;9.292;2024-01-25T05:18:37;7.90;99.90
73643;DHT22;61938;48.652;9.292;2024-01-25T05:21:02;8.00;99.90
73643;DHT22;61938;48.652;9.292;2024-01-25T05:23:28;8.00;99.90
73643;DHT22;61938;48.652;9.292;2024-01-25T05:25:53;7.40;99.90
73643;DHT22;61938;48.652;9.292;2024-01-25T05:28:19;7.90;99.90
73643;DHT22;61938;48.652;9.292;2024-01-25T05:30:47;7.40;99.90
73643;DHT22;61938;48.652;9.292;2024-01-25T05:33:12;7.80;99.90
73643;DHT22;61938;48.652;9.292;2024-01-25T05:35:38;7.80;99.90
73643;DHT22;61938;48.652;9.292;2024-01-25T05:38:03;7.30;99.90
73643;DHT22;61938;48.652;9.292;2024-01-25T05:40:31;7.90;99.90
73643;DHT22;61938;48.652;9.292;2024-01-25T05:42:57;10.80;99.90
73643;DHT22;61938;48.652;9.292;2024-01-25T05:45:22;7.50;99.90
73643;DHT22;61938;48.652;9.292;2024-01-25T05:47:49;7.20;99.90
73643;DHT22;61938;48.652;9.292;2024-01-25T05:50:18;6.50;99.90
73643;DHT22;61938;48.652;9.292;2024-01-25T05:52:44;7.70;99.90
73643;DHT22;61938;48.652;9.292;2024-01-25T05:55:09;6.80;99.90
73643;DHT22;61938;48.652;9.292;2024-01-25T05:57:36;7.80;99.90
73643;DHT22;61938;48.652;9.292;2024-01-25T06:00:02;7.70;99.90
73643;DHT22;61938;48.652;9.292;2024-01-25T06:02:29;7.70;99.90
73643;DHT22;61938;48.652;9.292;2024-01-25T06:04:55;7.50;99.90
73643;DHT22;61938;48.652;9.292;2024-01-25T06:07:23;7.60;99.90
73643;DHT22;61938;48.652;9.292;2024-01-25T06:09:50;7.40;99.90
73643;DHT22;61938;48.652;9.292;2024-01-25T06:12:15;7.60;99.90
73643;DHT22;61938;48.652;9.292;2024-01-25T06:14:41;7.50;99.90
73643;DHT22;61938;48.652;9.292;2024-01-25T06:17:06;7.50;99.90
73643;DHT22;61938;48.652;9.292;2024-01-25T06:19:32;7.50;99.90
73643;DHT22;61938;48.652;9.292;2024-01-25T06:21:58;7.50;99.90
73643;DHT22;61938;48.652;9.292;2024-01-25T06:24:24;7.50;99.90
73643;DHT22;61938;48.652;9.292;2024-01-25T06:26:49;7.40;99.90
73643;DHT22;61938;48.652;9.292;2024-01-25T06:29:15;7.40;99.90
73643;DHT22;61938;48.652;9.292;2024-01-25T06:31:44;7.30;99.90
73643;DHT22;61938;48.652;9.292;2024-01-25T06:34:10;7.30;99.90
73643;DHT22;61938;48.652;9.292;2024-01-25T06:36:36;7.30;99.90
73643;DHT22;61938;48.652;9.292;2024-01-25T06:39:01;7.20;99.90
73643;DHT22;61938;48.652;9.292;2024-01-25T06:41:27;7.20;99.90
73643;DHT22;61938;48.652;9.292;2024-01-25T06:43:52;7.20;99.90
73643;DHT22;61938;48.652;9.292;2024-01-25T06:46:18;7.10;99.90
73643;DHT22;61938;48.652;9.292;2024-01-25T06:48:43;7.00;99.90
73643;DHT22;61938;48.652;9.292;2024-01-25T06:51:09;7.10;99.90
73643;DHT22;61938;48.652;9.292;2024-01-25T06:53:34;7.00;99.90
73643;DHT22;61938;48.652;9.292;2024-01-25T06:56:00;6.90;99.90
73643;DHT22;61938;48.652;9.292;2024-01-25T06:58:25;6.90;99.90
73643;DHT22;61938;48.652;9.292;2024-01-25T07:00:51;6.80;99.90
73643;DHT22;61938;48.652;9.292;2024-01-25T07:03:18;6.80;99.90
73643;DHT22;61938;48.652;9.292;2024-01-25T07:05:43;6.80;99.90
73643;DHT22;61938;48.652;9.292;2024-01-25T07:08:09;6.80;99.90
73643;DHT22;61938;48.652;9.292;2024-01-25T07:10:39;6.70;99.90
73643;DHT22;61938;48.652;9.292;2024-01-25T07:13:04;6.70;99.90
73643;DHT22;61938;48.652;9.292;2024-01-25T07:15:30;6.60;99.90
73643;DHT22;61938;48.652;9.292;2024-01-25T07:17:55;6.60;99.90
73643;DHT22;61938;48.652;9.292;2024-01-25T07:20:21;6.60;99.90
73643;DHT22;61938;48.652;9.292;2024-01-25T07:22:46;6.60;99.90
73643;DHT22;61938;48.652;9.292;2024-01-25T07:25:12;6.50;99.90
73643;DHT22;61938;48.652;9.292;2024-01-25T07:27:37;6.50;99.90
73643;DHT22;61938;48.652;9.292;2024-01-25T07:30:03;6.40;99.90
73643;DHT22;61938;48.652;9.292;2024-01-25T07:32:29;6.30;99.90
73643;DHT22;61938;48.652;9.292;2024-01-25T07:34:54;6.30;99.90
73643;DHT22;61938;48.652;9.292;2024-01-25T07:37:20;6.30;99.90
73643;DHT22;61938;48.652;9.292;2024-01-25T07:39:45;6.30;99.90
73643;DHT22;61938;48.652;9.292;2024-01-25T07:42:11;6.30;99.90
73643;DHT22;61938;48.652;9.292;2024-01-25T07:44:37;6.30;99.90
73643;DHT22;61938;48.652;9.292;2024-01-25T07:47:04;6.30;99.90
73643;DHT22;61938;48.652;9.292;2024-01-25T07:49:30;6.30;99.90
73643;DHT22;61938;48.652;9.292;2024-01-25T07:51:56;5.80;99.90
73643;DHT22;61938;48.652;9.292;2024-01-25T07:54:22;5.80;99.90
73643;DHT22;61938;48.652;9.292;2024-01-25T07:56:48;6.30;99.90
73643;DHT22;61938;48.652;9.292;2024-01-25T07:59:13;6.30;99.90
73643;DHT22;61938;48.652;9.292;2024-01-25T08:01:39;6.40;99.90
73643;DHT22;61938;48.652;9.292;2024-01-25T08:04:04;6.40;99.90
73643;DHT22;61938;48.652;9.292;2024-01-25T08:06:30;6.40;99.90
73643;DHT22;61938;48.652;9.292;2024-01-25T08:08:55;6.50;99.90
73643;DHT22;61938;48.652;9.292;2024-01-25T08:11:21;6.40;99.90
73643;DHT22;61938;48.652;9.292;2024-01-25T08:13:46;6.50;99.90
73643;DHT22;61938;48.652;9.292;2024-01-25T08:16:13;6.50;99.90
73643;DHT22;61938;48.652;9.292;2024-01-25T08:18:39;6.50;99.90
73643;DHT22;61938;48.652;9.292;2024-01-25T08:21:05;6.60;99.90
73643;DHT22;61938;48.652;9.292;2024-01-25T08:23:32;6.80;99.90
73643;DHT22;61938;48.652;9.292;2024-01-25T08:25:58;8.80;99.90
73643;DHT22;61938;48.652;9.292;2024-01-25T08:28:24;6.30;99.90
73643;DHT22;61938;48.652;9.292;2024-01-25T08:30:50;6.70;99.90
73643;DHT22;61938;48.652;9.292;2024-01-25T08:33:15;6.80;99.90
73643;DHT22;61938;48.652;9.292;2024-01-25T08:35:41;6.90;99.90
73643;DHT22;61938;48.652;9.292;2024-01-25T08:38:10;6.90;99.90
73643;DHT22;61938;48.652;9.292;2024-01-25T08:40:35;7.00;99.90
73643;DHT22;61938;48.652;9.292;2024-01-25T08:43:01;6.90;99.90
73643;DHT22;61938;48.652;9.292;2024-01-25T08:45:26;7.00;99.90
73643;DHT22;61938;48.652;9.292;2024-01-25T08:47:52;7.10;99.90
73643;DHT22;61938;48.652;9.292;2024-01-25T08:50:17;7.10;99.90
73643;DHT22;61938;48.652;9.292;2024-01-25T08:52:43;7.20;99.90
73643;DHT22;61938;48.652;9.292;2024-01-25T08:55:12;7.20;99.90
73643;DHT22;61938;48.652;9.292;2024-01-25T08:57:38;7.20;99.90
73643;DHT22;61938;48.652;9.292;2024-01-25T09:00:05;6.90;99.90
73643;DHT22;61938;48.652;9.292;2024-01-25T09:02:36;7.30;99.90
73643;DHT22;61938;48.652;9.292;2024-01-25T09:05:09;6.60;99.90
73643;DHT22;61938;48.652;9.292;2024-01-25T09:07:35;6.90;99.90
73643;DHT22;61938;48.652;9.292;2024-01-25T09:10:01;9.50;99.90
73643;DHT22;61938;48.652;9.292;2024-01-25T09:12:26;7.20;99.90
73643;DHT22;61938;48.652;9.292;2024-01-25T09:14:52;7.30;99.90
73643;DHT22;61938;48.652;9.292;2024-01-25T09:17:17;7.40;99.90
73643;DHT22;61938;48.652;9.292;2024-01-25T09:19:50;7.50;99.90
73643;DHT22;61938;48.652;9.292;2024-01-25T09:22:16;7.50;99.90
73643;DHT22;61938;48.652;9.292;2024-01-25T09:24:44;7.50;99.90
73643;DHT22;61938;48.652;9.292;2024-01-25T09:27:10;7.50;99.90
73643;DHT22;61938;48.652;9.292;2024-01-25T09:29:36;7.50;99.90
73643;DHT22;61938;48.652;9.292;2024-01-25T09:32:04;7.60;99.90
73643;DHT22;61938;48.652;9.292;2024-01-25T09:34:30;7.60;99.90
73643;DHT22;61938;48.652;9.292;2024-01-25T09:36:56;7.00;99.90
73643;DHT22;61938;48.652;9.292;2024-01-25T09:39:21;7.70;99.90
73643;DHT22;61938;48.652;9.292;2024-01-25T09:41:47;7.70;99.90
73643;DHT22;61938;48.652;9.292;2024-01-25T09:44:12;7.70;99.90
73643;DHT22;61938;48.652;9.292;2024-01-25T09:46:39;7.70;99.90
73643;DHT22;61938;48.652;9.292;2024-01-25T09:49:07;7.80;99.90
73643;DHT22;61938;48.652;9.292;2024-01-25T09:51:43;7.80;99.90
73643;DHT22;61938;48.652;9.292;2024-01-25T09:54:09;7.80;99.90
73643;DHT22;61938;48.652;9.292;2024-01-25T09:56:35;7.90;99.90
73643;DHT22;61938;48.652;9.292;2024-01-25T09:59:01;7.90;99.90
73643;DHT22;61938;48.652;9.292;2024-01-25T10:01:27;8.00;99.90
73643;DHT22;61938;48.652;9.292;2024-01-25T10:03:53;8.00;99.90
73643;DHT22;61938;48.652;9.292;2024-01-25T10:06:22;8.00;99.90
73643;DHT22;61938;48.652;9.292;2024-01-25T10:08:48;8.00;99.90
73643;DHT22;61938;48.652;9.292;2024-01-25T10:11:13;8.10;99.90
73643;DHT22;61938;48.652;9.292;2024-01-25T10:13:47;8.10;99.90
73643;DHT22;61938;48.652;9.292;2024-01-25T10:16:14;8.10;99.90
73643;DHT22;61938;48.652;9.292;2024-01-25T10:18:41;8.10;99.90
73643;DHT22;61938;48.652;9.292;2024-01-25T10:21:10;8.10;99.90
73643;DHT22;61938;48.652;9.292;2024-01-25T10:23:37;8.10;99.90
73643;DHT22;61938;48.652;9.292;2024-01-25T10:26:03;8.00;99.90
73643;DHT22;61938;48.652;9.292;2024-01-25T10:28:29;8.20;99.90
73643;DHT22;61938;48.652;9.292;2024-01-25T10:30:59;7.70;99.90
73643;DHT22;61938;48.652;9.292;2024-01-25T10:33:26;8.20;99.90
73643;DHT22;61938;48.652;9.292;2024-01-25T10:35:54;8.20;99.90
73643;DHT22;61938;48.652;9.292;2024-01-25T10:38:21;8.20;99.90
73643;DHT22;61938;48.652;9.292;2024-01-25T10:40:52;8.30;99.90
73643;DHT22;61938;48.652;9.292;2024-01-25T10:43:19;10.20;99.90
73643;DHT22;61938;48.652;9.292;2024-01-25T10:45:45;7.60;99.90
73643;DHT22;61938;48.652;9.292;2024-01-25T10:48:11;8.30;99.90
73643;DHT22;61938;48.652;9.292;2024-01-25T10:50:37;8.30;99.90
73643;DHT22;61938;48.652;9.292;2024-01-25T10:53:06;8.40;99.90
73643;DHT22;61938;48.652;9.292;2024-01-25T10:55:32;8.40;99.90
73643;DHT22;61938;48.652;9.292;2024-01-25T10:57:58;8.40;99.90
73643;DHT22;61938;48.652;9.292;2024-01-25T11:00:23;8.50;99.90
73643;DHT22;61938;48.652;9.292;2024-01-25T11:02:51;9.10;99.90
73643;DHT22;61938;48.652;9.292;2024-01-25T11:05:17;8.60;99.90
73643;DHT22;61938;48.652;9.292;2024-01-25T11:07:48;8.70;99.90
73643;DHT22;61938;48.652;9.292;2024-01-25T11:10:17;8.70;99.90
73643;DHT22;61938;48.652;9.292;2024-01-25T11:12:56;8.70;99.90
73643;DHT22;61938;48.652;9.292;2024-01-25T11:15:23;8.80;99.90
73643;DHT22;61938;48.652;9.292;2024-01-25T11:17:56;7.90;99.90
73643;DHT22;61938;48.652;9.292;2024-01-25T11:20:23;10.40;99.90
73643;DHT22;61938;48.652;9.292;2024-01-25T11:23:11;7.30;99.90
73643;DHT22;61938;48.652;9.292;2024-01-25T11:25:39;8.50;99.90
73643;DHT22;61938;48.652;9.292;2024-01-25T11:28:05;8.80;99.90
73643;DHT22;61938;48.652;9.292;2024-01-25T11:30:33;9.00;99.90
73643;DHT22;61938;48.652;9.292;2024-01-25T11:32:59;9.00;99.90
73643;DHT22;61938;48.652;9.292;2024-01-25T11:35:28;9.70;99.90
73643;DHT22;61938;48.652;9.292;2024-01-25T11:37:53;10.30;99.90
73643;DHT22;61938;48.652;9.292;2024-01-25T11:40:19;8.50;99.90
73643;DHT22;61938;48.652;9.292;2024-01-25T11:42:48;10.90;99.90
73643;DHT22;61938;48.652;9.292;2024-01-25T11:45:14;8.90;99.90
73643;DHT22;61938;48.652;9.292;2024-01-25T11:47:41;9.00;99.90
73643;DHT22;61938;48.652;9.292;2024-01-25T11:50:08;9.00;99.90
73643;DHT22;61938;48.652;9.292;2024-01-25T11:52:35;9.40;99.90
73643;DHT22;61938;48.652;9.292;2024-01-25T11:55:07;9.40;99.90
73643;DHT22;61938;48.652;9.292;2024-01-25T11:57:38;9.50;99.90
73643;DHT22;61938;48.652;9.292;2024-01-25T12:00:05;9.50;99.90
73643;DHT22;61938;48.652;9.292;2024-01-25T12:02:32;9.60;99.90
73643;DHT22;61938;48.652;9.292;2024-01-25T12:04:58;9.20;99.90
73643;DHT22;61938;48.652;9.292;2024-01-25T12:07:23;10.80;99.90
73643;DHT22;61938;48.652;9.292;2024-01-25T12:12:24;9.60;99.90
73643;DHT22;61938;48.652;9.292;2024-01-25T12:14:50;8.90;99.90
73643;DHT22;61938;48.652;9.292;2024-01-25T12:17:17;9.70;99.90
73643;DHT22;61938;48.652;9.292;2024-01-25T12:19:43;9.70;99.90
73643;DHT22;61938;48.652;9.292;2024-01-25T12:22:08;9.80;99.90
73643;DHT22;61938;48.652;9.292;2024-01-25T12:24:35;9.40;99.90
73643;DHT22;61938;48.652;9.292;2024-01-25T12:27:00;10.00;99.90
73643;DHT22;61938;48.652;9.292;2024-01-25T12:29:26;9.70;99.90
73643;DHT22;61938;48.652;9.292;2024-01-25T12:31:52;9.80;99.90
73643;DHT22;61938;48.652;9.292;2024-01-25T12:34:18;12.00;99.90
73643;DHT22;61938;48.652;9.292;2024-01-25T12:36:46;9.90;99.90
73643;DHT22;61938;48.652;9.292;2024-01-25T12:39:11;9.80;99.90
73643;DHT22;61938;48.652;9.292;2024-01-25T12:41:38;10.20;99.90
73643;DHT22;61938;48.652;9.292;2024-01-25T12:44:04;10.20;99.90
73643;DHT22;61938;48.652;9.292;2024-01-25T12:46:29;10.20;99.90
73643;DHT22;61938;48.652;9.292;2024-01-25T12:48:55;10.20;99.90
73643;DHT22;61938;48.652;9.292;2024-01-25T12:51:22;10.20;99.90
73643;DHT22;61938;48.652;9.292;2024-01-25T12:53:49;10.30;99.90
73643;DHT22;61938;48.652;9.292;2024-01-25T12:56:14;10.30;99.90
73643;DHT22;61938;48.652;9.292;2024-01-25T12:58:40;10.30;99.90
73643;DHT22;61938;48.652;9.292;2024-01-25T13:01:06;10.30;99.90
73643;DHT22;61938;48.652;9.292;2024-01-25T13:03:31;10.30;99.90
73643;DHT22;61938;48.652;9.292;2024-01-25T13:05:57;10.40;99.90
73643;DHT22;61938;48.652;9.292;2024-01-25T13:08:22;10.40;99.90
73643;DHT22;61938;48.652;9.292;2024-01-25T13:10:48;10.40;99.90
73643;DHT22;61938;48.652;9.292;2024-01-25T13:13:13;10.40;99.90
73643;DHT22;61938;48.652;9.292;2024-01-25T13:15:39;10.40;99.90
73643;DHT22;61938;48.652;9.292;2024-01-25T13:18:05;10.50;99.90
73643;DHT22;61938;48.652;9.292;2024-01-25T13:20:30;10.50;99.90
73643;DHT22;61938;48.652;9.292;2024-01-25T13:22:56;10.40;99.90
73643;DHT22;61938;48.652;9.292;2024-01-25T13:25:21;10.50;99.90
73643;DHT22;61938;48.652;9.292;2024-01-25T13:27:47;10.50;99.90
73643;DHT22;61938;48.652;9.292;2024-01-25T13:30:12;10.50;99.90
73643;DHT22;61938;48.652;9.292;2024-01-25T13:32:39;10.50;99.90
73643;DHT22;61938;48.652;9.292;2024-01-25T13:35:04;10.40;99.90
73643;DHT22;61938;48.652;9.292;2024-01-25T13:37:30;10.50;99.90
73643;DHT22;61938;48.652;9.292;2024-01-25T13:39:56;10.50;99.90
73643;DHT22;61938;48.652;9.292;2024-01-25T13:42:21;10.50;99.90
73643;DHT22;61938;48.652;9.292;2024-01-25T13:44:47;10.50;99.90
73643;DHT22;61938;48.652;9.292;2024-01-25T13:47:12;10.70;99.90
73643;DHT22;61938;48.652;9.292;2024-01-25T13:49:38;10.60;99.90
73643;DHT22;61938;48.652;9.292;2024-01-25T13:52:04;10.50;99.90
73643;DHT22;61938;48.652;9.292;2024-01-25T13:54:29;10.50;99.90
73643;DHT22;61938;48.652;9.292;2024-01-25T13:56:55;10.50;99.90
73643;DHT22;61938;48.652;9.292;2024-01-25T13:59:21;10.50;99.90
73643;DHT22;61938;48.652;9.292;2024-01-25T14:01:46;10.40;99.90
73643;DHT22;61938;48.652;9.292;2024-01-25T14:04:12;10.10;99.90
73643;DHT22;61938;48.652;9.292;2024-01-25T14:06:38;9.60;99.90
73643;DHT22;61938;48.652;9.292;2024-01-25T14:09:04;10.40;99.90
73643;DHT22;61938;48.652;9.292;2024-01-25T14:11:30;10.40;99.90
73643;DHT22;61938;48.652;9.292;2024-01-25T14:13:56;10.40;99.90
73643;DHT22;61938;48.652;9.292;2024-01-25T14:16:22;10.40;99.90
73643;DHT22;61938;48.652;9.292;2024-01-25T14:18:47;9.80;99.90
73643;DHT22;61938;48.652;9.292;2024-01-25T14:21:13;12.10;99.90
73643;DHT22;61938;48.652;9.292;2024-01-25T14:23:38;10.10;99.90
73643;DHT22;61938;48.652;9.292;2024-01-25T14:26:04;10.40;99.90
73643;DHT22;61938;48.652;9.292;2024-01-25T14:28:30;10.40;99.90
73643;DHT22;61938;48.652;9.292;2024-01-25T14:30:56;10.40;99.90
73643;DHT22;61938;48.652;9.292;2024-01-25T14:33:22;10.20;99.90
73643;DHT22;61938;48.652;9.292;2024-01-25T14:35:47;9.90;99.90
73643;DHT22;61938;48.652;9.292;2024-01-25T14:38:13;9.70;99.90
73643;DHT22;61938;48.652;9.292;2024-01-25T14:40:39;9.50;99.90
73643;DHT22;61938;48.652;9.292;2024-01-25T14:43:05;10.40;99.90
73643;DHT22;61938;48.652;9.292;2024-01-25T14:45:30;10.40;99.90
73643;DHT22;61938;48.652;9.292;2024-01-25T14:47:57;10.40;99.90
73643;DHT22;61938;48.652;9.292;2024-01-25T14:50:23;10.40;99.90
73643;DHT22;61938;48.652;9.292;2024-01-25T14:52:49;10.40;99.90
73643;DHT22;61938;48.652;9.292;2024-01-25T14:55:15;10.40;99.90
73643;DHT22;61938;48.652;9.292;2024-01-25T14:57:40;10.40;99.90
73643;DHT22;61938;48.652;9.292;2024-01-25T15:00:07;10.00;99.90
73643;DHT22;61938;48.652;9.292;2024-01-25T15:02:33;10.40;99.90
73643;DHT22;61938;48.652;9.292;2024-01-25T15:04:59;9.80;99.90
73643;DHT22;61938;48.652;9.292;2024-01-25T15:07:27;9.80;99.90
73643;DHT22;61938;48.652;9.292;2024-01-25T15:09:55;10.80;99.90
73643;DHT22;61938;48.652;9.292;2024-01-25T15:12:20;11.80;99.90
73643;DHT22;61938;48.652;9.292;2024-01-25T15:14:46;10.20;99.90
73643;DHT22;61938;48.652;9.292;2024-01-25T15:17:12;10.20;99.90
73643;DHT22;61938;48.652;9.292;2024-01-25T15:19:37;10.10;99.90
73643;DHT22;61938;48.652;9.292;2024-01-25T15:22:04;10.30;99.90
73643;DHT22;61938;48.652;9.292;2024-01-25T15:24:30;9.90;99.90
73643;DHT22;61938;48.652;9.292;2024-01-25T15:26:57;12.90;99.90
73643;DHT22;61938;48.652;9.292;2024-01-25T15:29:23;10.00;99.90
73643;DHT22;61938;48.652;9.292;2024-01-25T15:31:48;9.20;99.90
73643;DHT22;61938;48.652;9.292;2024-01-25T15:34:14;11.50;99.90
73643;DHT22;61938;48.652;9.292;2024-01-25T15:36:42;10.00;99.90
73643;DHT22;61938;48.652;9.292;2024-01-25T15:39:10;11.80;99.90